Time;durP1;ratioP1;P1;durP2;ratioP2;P2;SDS_P1;SDS_P2;PMS_P1;PMS_P2;Temp;Humidity;BMP_temperature;BMP_pressure;BME280_temperature;BME280_humidity;BME280_pressure;Samples;Min_cycle;Max_cycle;Signal;HPM_P1;HPM_P2
2022/09/04 00:00:11;;;;;;;3.65;1.75;;;;;;;;;;5050804;28;20068;-72
2022/09/04 00:02:52;;;;;;;4.25;1.73;;;;;;;;;;5078953;28;20038;-73
2022/09/04 00:05:35;;;;;;;3.85;1.88;;;;;;;;;;5080168;28;20666;-73
2022/09/04 00:08:07;;;;;;;;;;;;;;;;;;5062676;28;20463;-73
2022/09/04 00:10:38;;;;;;;7.30;1.90;;;;;;;;;;5078733;28;20278;-73
2022/09/04 00:13:07;;;;;;;3.40;2.00;;;;;;;;;;5059859;28;20028;-73
2022/09/04 00:15:36;;;;;;;4.70;2.00;;;;;;;;;;5061096;28;20076;-72
2022/09/04 00:18:12;;;;;;;4.05;2.20;;;;;;;;;;5046533;28;20491;-72
2022/09/04 00:20:53;;;;;;;4.93;2.20;;;;;;;;;;5076416;28;20085;-72
2022/09/04 00:23:25;;;;;;;4.18;2.05;;;;;;;;;;5060599;28;20030;-72
2022/09/04 00:26:01;;;;;;;4.82;1.70;;;;;;;;;;5074868;28;20472;-72
2022/09/04 00:28:44;;;;;;;3.13;1.77;;;;;;;;;;5079859;28;20051;-73
2022/09/04 00:31:12;;;;;;;12.43;2.20;;;;;;;;;;5079618;28;20032;-73
2022/09/04 00:33:47;;;;;;;5.63;2.35;;;;;;;;;;5075804;28;20115;-72
2022/09/04 00:36:13;;;;;;;5.47;2.08;;;;;;;;;;5050493;28;20083;-72
2022/09/04 00:38:54;;;;;;;3.92;1.88;;;;;;;;;;5047776;28;20111;-73
2022/09/04 00:41:29;;;;;;;6.43;2.17;;;;;;;;;;5058839;28;20031;-73
2022/09/04 00:44:26;;;;;;;4.68;1.92;;;;;;;;;;5077540;28;20032;-73
2022/09/04 00:47:19;;;;;;;9.27;2.22;;;;;;;;;;5083935;28;20077;-72
2022/09/04 00:50:19;;;;;;;3.25;1.65;;;;;;;;;;5053990;28;20024;-72
2022/09/04 00:53:04;;;;;;;3.38;2.08;;;;;;;;;;5079672;28;20418;-72
2022/09/04 00:55:54;;;;;;;3.50;1.67;;;;;;;;;;5078415;28;20055;-73
2022/09/04 00:58:41;;;;;;;5.63;1.98;;;;;;;;;;5078922;28;20039;-72
2022/09/04 01:01:06;;;;;;;7.38;2.00;;;;;;;;;;5077172;28;20488;-72
2022/09/04 01:03:58;;;;;;;3.88;1.60;;;;;;;;;;5060236;28;20029;-72
2022/09/04 01:06:52;;;;;;;2.50;1.55;;;;;;;;;;5055410;28;20049;-73
2022/09/04 01:09:30;;;;;;;5.30;1.70;;;;;;;;;;5061765;28;20039;-72
2022/09/04 01:12:10;;;;;;;6.32;1.88;;;;;;;;;;5068006;28;20042;-72
2022/09/04 01:15:13;;;;;;;8.55;2.20;;;;;;;;;;5067409;28;20081;-72
2022/09/04 01:17:53;;;;;;;6.20;2.30;;;;;;;;;;5083088;28;20344;-72
2022/09/04 01:20:38;;;;;;;3.67;1.70;;;;;;;;;;5076988;28;20387;-72
2022/09/04 01:23:25;;;;;;;3.90;1.85;;;;;;;;;;5054341;28;20027;-72
2022/09/04 01:26:03;;;;;;;7.68;1.77;;;;;;;;;;5077277;28;20035;-73
2022/09/04 01:28:35;;;;;;;3.70;1.77;;;;;;;;;;5074966;28;20044;-72
2022/09/04 01:31:12;;;;;;;5.32;1.80;;;;;;;;;;5052750;28;20058;-72
2022/09/04 01:33:43;;;;;;;5.13;1.83;;;;;;;;;;5064117;28;20032;-72
2022/09/04 01:36:21;;;;;;;6.20;2.30;;;;;;;;;;5057189;28;20036;-72
2022/09/04 01:38:50;;;;;;;4.50;1.50;;;;;;;;;;5060002;28;20032;-72
2022/09/04 01:41:40;;;;;;;3.78;2.10;;;;;;;;;;5061769;28;20395;-72
2022/09/04 01:44:08;;;;;;;5.82;2.05;;;;;;;;;;5069917;28;20161;-72
2022/09/04 01:46:59;;;;;;;5.95;1.95;;;;;;;;;;5064638;28;20032;-72
2022/09/04 01:49:35;;;;;;;5.13;1.67;;;;;;;;;;5059911;28;20124;-72
2022/09/04 01:52:28;;;;;;;3.97;2.08;;;;;;;;;;5073356;28;20417;-72
2022/09/04 01:55:23;;;;;;;4.83;2.10;;;;;;;;;;5076010;28;20039;-72
2022/09/04 01:58:17;;;;;;;6.88;2.28;;;;;;;;;;5078390;28;20405;-72
2022/09/04 02:01:02;;;;;;;5.78;2.17;;;;;;;;;;5075136;28;20048;-73
2022/09/04 02:03:46;;;;;;;7.38;2.47;;;;;;;;;;5055299;28;20024;-72
2022/09/04 02:06:35;;;;;;;6.43;2.17;;;;;;;;;;5075348;28;20107;-72
2022/09/04 02:09:28;;;;;;;3.08;2.00;;;;;;;;;;5068590;28;20055;-72
2022/09/04 02:12:10;;;;;;;8.53;2.20;;;;;;;;;;5071910;28;20039;-72
2022/09/04 02:15:17;;;;;;;7.57;2.10;;;;;;;;;;5062234;28;20107;-72
2022/09/04 02:17:54;;;;;;;9.77;2.72;;;;;;;;;;5067778;28;20554;-72
2022/09/04 02:20:27;;;;;;;4.25;2.33;;;;;;;;;;5054849;28;20038;-72
2022/09/04 02:22:58;;;;;;;7.28;2.60;;;;;;;;;;5079587;28;20483;-72
2022/09/04 02:25:54;;;;;;;4.25;2.20;;;;;;;;;;5078861;28;20476;-72
2022/09/04 02:28:39;;;;;;;3.92;2.30;;;;;;;;;;5059748;28;20073;-72
2022/09/04 02:31:17;;;;;;;4.07;2.70;;;;;;;;;;5057069;28;20134;-72
2022/09/04 02:34:07;;;;;;;4.47;2.40;;;;;;;;;;5079178;28;20036;-72
2022/09/04 02:36:41;;;;;;;4.65;2.60;;;;;;;;;;5071144;28;20036;-72
2022/09/04 02:39:16;;;;;;;5.68;2.72;;;;;;;;;;5075856;28;20044;-72
2022/09/04 02:41:51;;;;;;;4.53;2.50;;;;;;;;;;5056002;28;20074;-72
2022/09/04 02:44:19;;;;;;;7.38;2.72;;;;;;;;;;5076846;28;20020;-72
2022/09/04 02:47:11;;;;;;;6.15;3.03;;;;;;;;;;5078127;28;20666;-72
2022/09/04 02:50:23;;;;;;;9.50;2.97;;;;;;;;;;5067367;28;20047;-72
2022/09/04 02:53:08;;;;;;;9.27;2.72;;;;;;;;;;5074213;28;20122;-73
2022/09/04 02:55:54;;;;;;;5.60;2.47;;;;;;;;;;5076608;28;20040;-72
2022/09/04 02:58:51;;;;;;;9.30;3.30;;;;;;;;;;5073253;28;20483;-72
2022/09/04 03:01:41;;;;;;;7.75;3.38;;;;;;;;;;5072585;28;20016;-72
2022/09/04 03:04:17;;;;;;;9.55;3.08;;;;;;;;;;5078271;28;20028;-73
2022/09/04 03:06:57;;;;;;;5.13;3.50;;;;;;;;;;5063539;28;20110;-72
2022/09/04 03:09:35;;;;;;;6.43;3.17;;;;;;;;;;5051995;28;20116;-72
2022/09/04 03:12:28;;;;;;;6.68;3.38;;;;;;;;;;5059001;28;20054;-72
2022/09/04 03:15:06;;;;;;;5.70;2.75;;;;;;;;;;5090381;28;20410;-72
2022/09/04 03:17:53;;;;;;;7.47;3.08;;;;;;;;;;5058442;28;20262;-72
2022/09/04 03:20:26;;;;;;;6.68;3.47;;;;;;;;;;5051330;28;20078;-72
2022/09/04 03:23:13;;;;;;;4.68;3.17;;;;;;;;;;5048077;28;20029;-72
2022/09/04 03:25:55;;;;;;;10.50;3.60;;;;;;;;;;5075953;28;20488;-72
2022/09/04 03:28:57;;;;;;;7.03;3.60;;;;;;;;;;5054280;28;20047;-72
2022/09/04 03:31:27;;;;;;;10.30;3.83;;;;;;;;;;5043203;28;20047;-72
2022/09/04 03:34:00;;;;;;;7.32;3.25;;;;;;;;;;5053819;28;20039;-72
2022/09/04 03:36:34;;;;;;;8.73;3.15;;;;;;;;;;5070987;28;20427;-72
2022/09/04 03:39:24;;;;;;;6.53;3.28;;;;;;;;;;5073134;28;20066;-72
2022/09/04 03:42:03;;;;;;;8.23;3.53;;;;;;;;;;5036718;28;20117;-72
2022/09/04 03:44:37;;;;;;;5.53;3.22;;;;;;;;;;5077239;28;20028;-72
2022/09/04 03:47:06;;;;;;;8.98;3.90;;;;;;;;;;5093378;28;20149;-72
2022/09/04 03:50:08;;;;;;;10.13;3.50;;;;;;;;;;5067419;28;20437;-72
2022/09/04 03:53:05;;;;;;;17.73;3.20;;;;;;;;;;5069070;28;21451;-72
2022/09/04 03:55:43;;;;;;;6.07;3.05;;;;;;;;;;5074254;28;20047;-72
2022/09/04 03:58:27;;;;;;;8.10;3.60;;;;;;;;;;5065927;28;20027;-72
2022/09/04 04:00:55;;;;;;;;;;;;;;;;;;5076901;28;20111;-72
2022/09/04 04:03:28;;;;;;;9.65;3.90;;;;;;;;;;5076109;28;19920;-71
2022/09/04 04:06:15;;;;;;;6.40;3.78;;;;;;;;;;5067315;28;20487;-71
2022/09/04 04:08:55;;;;;;;7.97;4.13;;;;;;;;;;5075771;28;20073;-72
2022/09/04 04:11:42;;;;;;;7.72;3.55;;;;;;;;;;5076294;28;20034;-74
2022/09/04 04:14:29;;;;;;;7.03;3.97;;;;;;;;;;5081559;28;20443;-73
2022/09/04 04:17:01;;;;;;;10.63;3.63;;;;;;;;;;5097057;28;20039;-71
2022/09/04 04:19:51;;;;;;;14.07;3.72;;;;;;;;;;5071949;28;20397;-71
2022/09/04 04:22:26;;;;;;;9.18;3.85;;;;;;;;;;5081345;28;20034;-71
2022/09/04 04:25:15;;;;;;;11.57;4.32;;;;;;;;;;5065130;28;20026;-71
2022/09/04 04:27:56;;;;;;;10.82;4.30;;;;;;;;;;5070007;28;20048;-71
2022/09/04 04:30:22;;;;;;;16.33;4.47;;;;;;;;;;5081050;28;20123;-71
2022/09/04 04:33:07;;;;;;;10.40;4.68;;;;;;;;;;5079504;28;20039;-71
2022/09/04 04:35:44;;;;;;;11.98;4.63;;;;;;;;;;5080109;28;20065;-71
2022/09/04 04:38:36;;;;;;;6.07;4.28;;;;;;;;;;5072852;28;20024;-70
2022/09/04 04:41:14;;;;;;;8.52;3.92;;;;;;;;;;5072890;28;20109;-70
2022/09/04 04:44:04;;;;;;;10.98;5.07;;;;;;;;;;5081859;28;20016;-71
2022/09/04 04:47:14;;;;;;;6.70;4.68;;;;;;;;;;5081352;28;20039;-72
2022/09/04 04:50:14;;;;;;;8.07;4.72;;;;;;;;;;5040685;28;20373;-71
2022/09/04 04:52:53;;;;;;;5.63;4.40;;;;;;;;;;5009778;28;20184;-71
2022/09/04 04:55:34;;;;;;;9.50;4.75;;;;;;;;;;5043881;28;20042;-71
2022/09/04 04:57:59;;;;;;;9.85;5.22;;;;;;;;;;5046478;28;20037;-71
2022/09/04 05:00:39;;;;;;;8.05;4.45;;;;;;;;;;5077426;28;20165;-71
2022/09/04 05:03:14;;;;;;;7.68;4.80;;;;;;;;;;5060624;28;20517;-71
2022/09/04 05:05:49;;;;;;;12.25;5.30;;;;;;;;;;5075085;28;20041;-71
2022/09/04 05:08:39;;;;;;;15.60;5.72;;;;;;;;;;5077198;28;20118;-71
2022/09/04 05:11:26;;;;;;;7.88;6.07;;;;;;;;;;5073119;28;20062;-71
2022/09/04 05:14:29;;;;;;;13.30;5.80;;;;;;;;;;5072594;28;20035;-71
2022/09/04 05:17:19;;;;;;;9.05;5.28;;;;;;;;;;5081538;28;20454;-71
2022/09/04 05:20:05;;;;;;;6.50;4.30;;;;;;;;;;5059968;28;20115;-70
2022/09/04 05:22:59;;;;;;;9.45;4.60;;;;;;;;;;5076548;28;20039;-71
2022/09/04 05:25:36;;;;;;;7.10;4.70;;;;;;;;;;5043947;28;20043;-72
2022/09/04 05:28:16;;;;;;;10.73;4.85;;;;;;;;;;5072967;28;20058;-71
2022/09/04 05:31:04;;;;;;;7.90;4.68;;;;;;;;;;5039716;28;20101;-71
2022/09/04 05:33:54;;;;;;;10.95;4.30;;;;;;;;;;5059456;28;20404;-71
2022/09/04 05:36:58;;;;;;;9.65;5.05;;;;;;;;;;5033223;28;20032;-71
2022/09/04 05:39:31;;;;;;;9.43;4.80;;;;;;;;;;5043098;28;20603;-71
2022/09/04 05:42:08;;;;;;;5.53;4.60;;;;;;;;;;5048820;28;20097;-70
2022/09/04 05:44:44;;;;;;;6.72;4.50;;;;;;;;;;5077290;28;20479;-71
2022/09/04 05:47:24;;;;;;;5.53;4.30;;;;;;;;;;5053280;28;20236;-70
2022/09/04 05:50:41;;;;;;;5.78;4.80;;;;;;;;;;5037917;28;20399;-71
2022/09/04 05:54:00;;;;;;;6.18;4.55;;;;;;;;;;5060706;28;20051;-73
2022/09/04 05:56:34;;;;;;;5.82;4.13;;;;;;;;;;5036517;28;20039;-70
2022/09/04 05:59:27;;;;;;;9.40;3.60;;;;;;;;;;5016913;28;20033;-70
2022/09/04 06:02:09;;;;;;;7.57;4.37;;;;;;;;;;5054760;28;20032;-70
2022/09/04 06:04:35;;;;;;;4.88;3.85;;;;;;;;;;5067434;28;20119;-69
2022/09/04 06:07:22;;;;;;;5.72;3.85;;;;;;;;;;5067211;28;20411;-70
2022/09/04 06:10:16;;;;;;;8.55;4.40;;;;;;;;;;5065376;28;20040;-71
2022/09/04 06:12:41;;;;;;;;;;;;;;;;;;5069630;28;20056;-69
2022/09/04 06:15:11;;;;;;;8.80;3.80;;;;;;;;;;5075852;28;19959;-71
2022/09/04 06:18:08;;;;;;;6.32;4.13;;;;;;;;;;5066727;28;20029;-71
2022/09/04 06:21:03;;;;;;;7.80;4.75;;;;;;;;;;5068449;28;20054;-71
2022/09/04 06:23:43;;;;;;;5.13;4.10;;;;;;;;;;5067675;28;20503;-71
2022/09/04 06:26:25;;;;;;;9.52;3.58;;;;;;;;;;5059363;28;20029;-71
2022/09/04 06:29:12;;;;;;;7.55;3.80;;;;;;;;;;5065950;28;20146;-71
2022/09/04 06:31:38;;;;;;;9.02;3.78;;;;;;;;;;5055381;28;20033;-70
2022/09/04 06:34:22;;;;;;;6.00;3.40;;;;;;;;;;5067556;28;20034;-71
2022/09/04 06:37:05;;;;;;;7.07;3.60;;;;;;;;;;5070520;28;20037;-71
2022/09/04 06:39:49;;;;;;;7.47;3.70;;;;;;;;;;5054143;28;20116;-71
2022/09/04 06:42:55;;;;;;;5.57;3.33;;;;;;;;;;5068878;28;20035;-71
2022/09/04 06:45:48;;;;;;;10.80;3.53;;;;;;;;;;5071904;28;20116;-71
2022/09/04 06:48:35;;;;;;;5.27;3.20;;;;;;;;;;5065328;28;20561;-71
2022/09/04 06:51:08;;;;;;;5.93;3.45;;;;;;;;;;5066864;28;20788;-71
2022/09/04 06:53:41;;;;;;;6.63;3.30;;;;;;;;;;5070757;28;20036;-71
2022/09/04 06:56:35;;;;;;;8.60;3.28;;;;;;;;;;5068583;28;20056;-71
2022/09/04 06:59:34;;;;;;;8.73;3.05;;;;;;;;;;5065989;28;20024;-71
2022/09/04 07:02:16;;;;;;;6.28;3.38;;;;;;;;;;5058487;28;20029;-71
2022/09/04 07:05:08;;;;;;;4.55;2.88;;;;;;;;;;5072378;28;20027;-71
2022/09/04 07:07:51;;;;;;;6.28;3.13;;;;;;;;;;5041481;28;20036;-71
2022/09/04 07:10:23;;;;;;;8.43;3.35;;;;;;;;;;5057970;28;20106;-71
2022/09/04 07:12:59;;;;;;;3.65;2.85;;;;;;;;;;5055275;28;20024;-70
2022/09/04 07:15:48;;;;;;;6.18;3.45;;;;;;;;;;5060505;28;20037;-70
2022/09/04 07:18:53;;;;;;;4.90;2.72;;;;;;;;;;5052483;28;20029;-74
2022/09/04 07:21:44;;;;;;;6.75;3.53;;;;;;;;;;5066884;28;20566;-73
2022/09/04 07:24:25;;;;;;;7.22;3.60;;;;;;;;;;5048984;28;20131;-73
2022/09/04 07:27:02;;;;;;;5.05;2.83;;;;;;;;;;5066528;28;20052;-71
2022/09/04 07:29:44;;;;;;;5.25;3.40;;;;;;;;;;5032287;28;20064;-70
2022/09/04 07:32:19;;;;;;;6.97;3.20;;;;;;;;;;5040520;28;20036;-71
2022/09/04 07:35:07;;;;;;;6.88;2.58;;;;;;;;;;5068431;28;20024;-71
2022/09/04 07:38:00;;;;;;;4.00;2.75;;;;;;;;;;5053017;28;20164;-71
2022/09/04 07:40:33;;;;;;;5.90;3.70;;;;;;;;;;5070007;28;20515;-70
2022/09/04 07:43:04;;;;;;;5.00;3.45;;;;;;;;;;5069300;28;20802;-71
2022/09/04 07:45:50;;;;;;;5.82;3.20;;;;;;;;;;5070534;28;20043;-71
2022/09/04 07:48:21;;;;;;;8.90;3.30;;;;;;;;;;5061584;28;20508;-71
2022/09/04 07:51:02;;;;;;;9.63;3.33;;;;;;;;;;5048409;28;20427;-71
2022/09/04 07:53:50;;;;;;;9.88;3.90;;;;;;;;;;5068611;28;20115;-71
2022/09/04 07:56:22;;;;;;;9.50;3.20;;;;;;;;;;5038709;28;20028;-70
2022/09/04 07:58:55;;;;;;;9.10;3.60;;;;;;;;;;5070008;28;20384;-71
2022/09/04 08:01:39;;;;;;;7.50;3.78;;;;;;;;;;5053086;28;20024;-71
2022/09/04 08:04:32;;;;;;;9.60;3.70;;;;;;;;;;5063884;28;20068;-71
2022/09/04 08:06:59;;;;;;;11.05;3.63;;;;;;;;;;5053519;28;20399;-70
2022/09/04 08:09:56;;;;;;;8.52;3.70;;;;;;;;;;5062482;28;20029;-71
2022/09/04 08:12:44;;;;;;;7.43;4.10;;;;;;;;;;5070094;28;20045;-71
2022/09/04 08:15:14;;;;;;;8.77;4.38;;;;;;;;;;5067583;28;20380;-71
2022/09/04 08:18:00;;;;;;;7.63;4.25;;;;;;;;;;5070269;28;20028;-71
2022/09/04 08:20:58;;;;;;;8.57;4.90;;;;;;;;;;5069776;28;20032;-71
2022/09/04 08:23:52;;;;;;;7.97;4.63;;;;;;;;;;5069682;28;20094;-71
2022/09/04 08:26:39;;;;;;;7.80;4.10;;;;;;;;;;5067472;28;20052;-71
2022/09/04 08:29:11;;;;;;;6.35;3.90;;;;;;;;;;5065956;28;20143;-71
2022/09/04 08:32:08;;;;;;;7.60;3.42;;;;;;;;;;5072330;28;20494;-71
2022/09/04 08:34:52;;;;;;;6.80;4.38;;;;;;;;;;5071833;28;20028;-71
2022/09/04 08:37:30;;;;;;;18.38;4.82;;;;;;;;;;5069406;28;20526;-71
2022/09/04 08:40:29;;;;;;;9.43;4.97;;;;;;;;;;5076088;28;20471;-71
2022/09/04 08:43:35;;;;;;;11.45;5.25;;;;;;;;;;5071223;28;20452;-71
2022/09/04 08:46:10;;;;;;;12.52;4.53;;;;;;;;;;5039795;28;20047;-71
2022/09/04 08:48:47;;;;;;;12.45;6.15;;;;;;;;;;5067691;28;21396;-71
2022/09/04 08:51:20;;;;;;;9.35;5.57;;;;;;;;;;5065256;28;20430;-71
2022/09/04 08:54:01;;;;;;;13.95;5.28;;;;;;;;;;5062066;28;20036;-72
2022/09/04 08:57:03;;;;;;;9.20;5.78;;;;;;;;;;5059189;28;20034;-71
2022/09/04 08:59:34;;;;;;;9.23;5.35;;;;;;;;;;5071680;28;20023;-70
2022/09/04 09:02:18;;;;;;;9.50;4.68;;;;;;;;;;5071094;28;20066;-70
2022/09/04 09:05:21;;;;;;;6.97;5.28;;;;;;;;;;5065108;28;20039;-72
2022/09/04 09:08:28;;;;;;;10.25;5.00;;;;;;;;;;5074651;28;20108;-70
2022/09/04 09:11:09;;;;;;;11.88;5.20;;;;;;;;;;5053095;28;20063;-70
2022/09/04 09:14:04;;;;;;;7.05;5.22;;;;;;;;;;5075116;28;20047;-70
2022/09/04 09:16:51;;;;;;;6.88;4.78;;;;;;;;;;5050464;28;20038;-70
2022/09/04 09:19:38;;;;;;;8.23;4.85;;;;;;;;;;5065301;28;20035;-69
2022/09/04 09:22:28;;;;;;;6.80;4.93;;;;;;;;;;5063938;28;20028;-70
2022/09/04 09:25:19;;;;;;;7.95;4.82;;;;;;;;;;5064872;28;20427;-71
2022/09/04 09:28:26;;;;;;;14.77;5.10;;;;;;;;;;5066370;28;20123;-71
2022/09/04 09:31:37;;;;;;;8.48;5.38;;;;;;;;;;5070800;28;20534;-71
2022/09/04 09:34:24;;;;;;;7.43;4.72;;;;;;;;;;5066552;28;20040;-70
2022/09/04 09:37:40;;;;;;;10.48;5.10;;;;;;;;;;5082590;28;20032;-74
2022/09/04 09:40:40;;;;;;;11.40;4.85;;;;;;;;;;5035922;28;20028;-71
2022/09/04 09:43:18;;;;;;;5.78;4.25;;;;;;;;;;5040689;28;20722;-71
2022/09/04 09:46:21;;;;;;;7.38;4.13;;;;;;;;;;5052368;28;20040;-71
2022/09/04 09:49:20;;;;;;;7.20;4.47;;;;;;;;;;5060048;28;20043;-71
2022/09/04 09:52:05;;;;;;;6.65;4.25;;;;;;;;;;5067804;28;20140;-71
2022/09/04 09:54:49;;;;;;;10.55;4.63;;;;;;;;;;5064339;28;20537;-71
2022/09/04 09:57:20;;;;;;;8.30;4.10;;;;;;;;;;5070825;28;20043;-71
2022/09/04 10:00:06;;;;;;;7.50;4.10;;;;;;;;;;5055621;28;20115;-71
2022/09/04 10:03:06;;;;;;;6.63;4.28;;;;;;;;;;5046968;28;20029;-71
2022/09/04 10:05:58;;;;;;;5.55;3.92;;;;;;;;;;5056100;28;20032;-71
2022/09/04 10:08:59;;;;;;;5.95;4.13;;;;;;;;;;5065446;28;20431;-71
2022/09/04 10:11:49;;;;;;;8.02;4.03;;;;;;;;;;5067077;28;20039;-71
2022/09/04 10:14:36;;;;;;;5.63;3.75;;;;;;;;;;5055200;28;20370;-71
2022/09/04 10:17:45;;;;;;;6.80;3.67;;;;;;;;;;5048216;28;20123;-71
2022/09/04 10:20:33;;;;;;;6.35;4.32;;;;;;;;;;5070663;28;20360;-72
2022/09/04 10:23:22;;;;;;;4.80;3.40;;;;;;;;;;5052136;28;20040;-72
2022/09/04 10:26:15;;;;;;;7.45;3.70;;;;;;;;;;5063296;28;20571;-70
2022/09/04 10:29:18;;;;;;;5.03;3.33;;;;;;;;;;5057271;28;20127;-70
2022/09/04 10:31:52;;;;;;;;;;;;;;;;;;5059186;28;20064;-70
2022/09/04 10:34:23;;;;;;;7.72;3.60;;;;;;;;;;5056616;28;19917;-70
2022/09/04 10:37:15;;;;;;;7.78;4.25;;;;;;;;;;5058124;28;20550;-70
2022/09/04 10:42:49;;;;;;;6.85;3.55;;;;;;;;;;5058838;28;20376;-71
2022/09/04 10:45:16;;;;;;;5.57;3.10;;;;;;;;;;5060621;28;20091;-71
2022/09/04 10:47:57;;;;;;;4.05;2.88;;;;;;;;;;5052191;28;20036;-71
2022/09/04 10:50:35;;;;;;;4.18;2.63;;;;;;;;;;5062186;28;20396;-71
2022/09/04 10:53:19;;;;;;;5.72;3.17;;;;;;;;;;5056543;28;20113;-71
2022/09/04 10:56:05;;;;;;;4.57;2.70;;;;;;;;;;5069459;28;20041;-71
2022/09/04 10:58:47;;;;;;;5.25;2.88;;;;;;;;;;5062377;28;20923;-76
2022/09/04 11:01:18;;;;;;;6.25;2.78;;;;;;;;;;5057242;28;20106;-75
2022/09/04 11:03:59;;;;;;;6.22;3.28;;;;;;;;;;5065636;28;20020;-75
2022/09/04 11:06:40;;;;;;;5.00;3.03;;;;;;;;;;5063076;28;20052;-74
2022/09/04 11:09:20;;;;;;;4.38;2.47;;;;;;;;;;5066826;28;20028;-74
2022/09/04 11:12:14;;;;;;;6.43;2.97;;;;;;;;;;5071739;28;20027;-72
2022/09/04 11:14:50;;;;;;;5.88;2.90;;;;;;;;;;5065458;28;20039;-74
2022/09/04 11:17:23;;;;;;;4.97;2.78;;;;;;;;;;5049862;28;20403;-74
2022/09/04 11:20:21;;;;;;;4.00;2.40;;;;;;;;;;5059606;28;20036;-75
2022/09/04 11:23:17;;;;;;;5.50;2.95;;;;;;;;;;5060330;28;20020;-74
2022/09/04 11:26:22;;;;;;;4.13;2.30;;;;;;;;;;5047077;28;20163;-75
2022/09/04 11:28:59;;;;;;;7.10;3.38;;;;;;;;;;5040231;28;20083;-74
2022/09/04 11:31:38;;;;;;;8.13;3.17;;;;;;;;;;5033588;28;21025;-73
2022/09/04 11:34:34;;;;;;;4.43;2.97;;;;;;;;;;5028431;28;20445;-75
2022/09/04 11:37:26;;;;;;;3.58;2.65;;;;;;;;;;5070460;28;20029;-75
2022/09/04 11:39:51;;;;;;;5.50;2.83;;;;;;;;;;5049344;28;20101;-75
2022/09/04 11:42:50;;;;;;;6.33;2.90;;;;;;;;;;5052721;28;20119;-74
2022/09/04 11:45:53;;;;;;;5.28;2.42;;;;;;;;;;5051670;28;20381;-75
2022/09/04 11:48:25;;;;;;;4.10;2.45;;;;;;;;;;5050526;28;20043;-74
2022/09/04 11:51:04;;;;;;;4.30;3.25;;;;;;;;;;5052022;28;20526;-74
2022/09/04 11:53:48;;;;;;;4.63;2.88;;;;;;;;;;5033553;28;20476;-74
2022/09/04 11:56:40;;;;;;;6.13;2.78;;;;;;;;;;5052107;28;20037;-75
2022/09/04 11:59:11;;;;;;;5.13;3.40;;;;;;;;;;5051621;28;20040;-74
2022/09/04 12:01:53;;;;;;;7.82;3.17;;;;;;;;;;5054371;28;20064;-74
2022/09/04 12:04:50;;;;;;;5.30;2.95;;;;;;;;;;5022574;28;20035;-74
2022/09/04 12:07:54;;;;;;;4.88;3.40;;;;;;;;;;5045808;28;20040;-74
2022/09/04 12:10:30;;;;;;;6.28;3.10;;;;;;;;;;5069009;28;20024;-74
2022/09/04 12:13:05;;;;;;;6.72;2.85;;;;;;;;;;5039371;28;20031;-75
2022/09/04 12:15:54;;;;;;;4.47;2.40;;;;;;;;;;5069139;28;20060;-74
2022/09/04 12:18:40;;;;;;;6.03;3.10;;;;;;;;;;5067929;28;20024;-73
2022/09/04 12:21:46;;;;;;;7.00;3.13;;;;;;;;;;5061453;28;20127;-72
2022/09/04 12:24:26;;;;;;;6.60;3.17;;;;;;;;;;5068201;28;20177;-73
2022/09/04 12:27:26;;;;;;;8.88;3.28;;;;;;;;;;5066373;28;20135;-73
2022/09/04 12:29:58;;;;;;;5.60;3.47;;;;;;;;;;5043483;28;20139;-73
2022/09/04 12:32:35;;;;;;;8.63;3.80;;;;;;;;;;5068662;28;20291;-73
2022/09/04 12:35:28;;;;;;;6.15;2.85;;;;;;;;;;5056318;28;20055;-74
2022/09/04 12:38:19;;;;;;;4.35;2.72;;;;;;;;;;5060915;28;20041;-73
2022/09/04 12:41:01;;;;;;;6.07;3.35;;;;;;;;;;5068579;28;20081;-74
2022/09/04 12:43:44;;;;;;;6.82;3.30;;;;;;;;;;5068292;28;20137;-74
2022/09/04 12:46:17;;;;;;;5.05;3.00;;;;;;;;;;5072198;28;20036;-74
2022/09/04 12:49:00;;;;;;;7.95;3.20;;;;;;;;;;5068460;28;20423;-74
2022/09/04 12:51:30;;;;;;;5.18;3.05;;;;;;;;;;5052787;28;20155;-73
2022/09/04 12:54:18;;;;;;;3.97;3.10;;;;;;;;;;5039466;28;20326;-73
2022/09/04 12:56:44;;;;;;;5.80;2.92;;;;;;;;;;5055080;28;20028;-74
2022/09/04 12:59:12;;;;;;;4.45;2.42;;;;;;;;;;5052035;28;20024;-74
2022/09/04 13:02:15;;;;;;;5.38;2.97;;;;;;;;;;5055387;28;20040;-73
2022/09/04 13:04:54;;;;;;;;;;;;;;;;;;5051748;28;20086;-74
2022/09/04 13:07:42;;;;;;;4.43;2.65;;;;;;;;;;5045335;28;19920;-74
2022/09/04 13:10:18;;;;;;;4.60;3.15;;;;;;;;;;5051659;28;20105;-73
2022/09/04 13:12:46;;;;;;;6.03;3.40;;;;;;;;;;5062873;28;20381;-74
2022/09/04 13:15:30;;;;;;;6.40;3.30;;;;;;;;;;5069605;28;20036;-74
2022/09/04 13:18:21;;;;;;;5.60;2.90;;;;;;;;;;5067201;28;20031;-74
2022/09/04 13:21:00;;;;;;;3.60;2.58;;;;;;;;;;5037294;28;20085;-74
2022/09/04 13:23:25;;;;;;;7.75;3.13;;;;;;;;;;5067836;28;20502;-74
2022/09/04 13:26:11;;;;;;;5.55;2.78;;;;;;;;;;5066953;28;20087;-74
2022/09/04 13:29:01;;;;;;;7.35;3.17;;;;;;;;;;5061368;28;20607;-74
2022/09/04 13:31:34;;;;;;;5.57;3.10;;;;;;;;;;5056151;28;20036;-74
2022/09/04 13:34:08;;;;;;;6.22;3.38;;;;;;;;;;5023347;28;20032;-74
2022/09/04 13:36:48;;;;;;;6.60;3.08;;;;;;;;;;5060280;28;20041;-74
2022/09/04 13:39:43;;;;;;;8.00;2.83;;;;;;;;;;5045985;28;20021;-74
2022/09/04 13:42:36;;;;;;;6.10;2.80;;;;;;;;;;5048402;28;20054;-74
2022/09/04 13:45:04;;;;;;;5.60;3.13;;;;;;;;;;5047205;28;20362;-74
2022/09/04 13:48:06;;;;;;;4.03;2.78;;;;;;;;;;5062625;28;20028;-74
2022/09/04 13:50:34;;;;;;;5.43;2.47;;;;;;;;;;5050354;28;20039;-74
2022/09/04 13:53:29;;;;;;;4.57;2.97;;;;;;;;;;5049273;28;20139;-74
2022/09/04 13:55:58;;;;;;;3.70;2.45;;;;;;;;;;5050612;28;20059;-74
2022/09/04 13:58:32;;;;;;;4.70;2.63;;;;;;;;;;5052130;28;20037;-74
2022/09/04 14:00:59;;;;;;;4.30;2.53;;;;;;;;;;5068193;28;20363;-74
2022/09/04 14:03:41;;;;;;;7.10;2.80;;;;;;;;;;5062657;28;20028;-74
2022/09/04 14:06:08;;;;;;;3.47;2.75;;;;;;;;;;5070205;28;20468;-74
2022/09/04 14:08:35;;;;;;;5.53;2.85;;;;;;;;;;5042156;28;20024;-74
2022/09/04 14:11:29;;;;;;;6.97;2.67;;;;;;;;;;5049852;28;20044;-74
2022/09/04 14:14:20;;;;;;;4.20;3.00;;;;;;;;;;5064229;28;20044;-73
2022/09/04 14:16:45;;;;;;;4.50;2.90;;;;;;;;;;5068266;28;20369;-74
2022/09/04 14:19:34;;;;;;;4.68;2.70;;;;;;;;;;5050678;28;20108;-74
2022/09/04 14:22:22;;;;;;;3.92;3.03;;;;;;;;;;5087774;28;20028;-74
2022/09/04 14:25:16;;;;;;;4.25;2.65;;;;;;;;;;5054466;28;20432;-74
2022/09/04 14:27:54;;;;;;;8.38;3.28;;;;;;;;;;5067161;28;20048;-74
2022/09/04 14:30:21;;;;;;;8.02;3.35;;;;;;;;;;5062050;28;20047;-74
2022/09/04 14:32:51;;;;;;;6.28;3.42;;;;;;;;;;5047640;28;20365;-74
2022/09/04 14:36:01;;;;;;;5.00;3.33;;;;;;;;;;5066169;28;20041;-74
2022/09/04 14:38:40;;;;;;;12.10;8.20;;;;;;;;;;5059348;28;20041;-74
2022/09/04 14:41:30;;;;;;;5.63;2.85;;;;;;;;;;5064545;28;20107;-74
2022/09/04 14:44:22;;;;;;;23.20;21.13;;;;;;;;;;5064816;28;20024;-74
2022/09/04 14:47:26;;;;;;;4.85;2.97;;;;;;;;;;5069224;28;20048;-73
2022/09/04 14:49:54;;;;;;;6.72;2.80;;;;;;;;;;5055580;28;20639;-73
2022/09/04 14:52:23;;;;;;;4.95;3.17;;;;;;;;;;5052667;28;20032;-73
2022/09/04 14:54:52;;;;;;;4.13;2.60;;;;;;;;;;5045553;28;20524;-73
2022/09/04 14:57:37;;;;;;;6.20;2.92;;;;;;;;;;5047357;28;20028;-73
2022/09/04 15:00:13;;;;;;;5.80;3.33;;;;;;;;;;5061215;28;20040;-73
2022/09/04 15:03:04;;;;;;;4.18;2.67;;;;;;;;;;5050665;28;20024;-76
2022/09/04 15:05:36;;;;;;;7.03;2.95;;;;;;;;;;5046610;28;20082;-73
2022/09/04 15:08:07;;;;;;;4.33;2.70;;;;;;;;;;5059720;28;20032;-73
2022/09/04 15:10:53;;;;;;;4.28;2.72;;;;;;;;;;5041273;28;20290;-73
2022/09/04 15:13:30;;;;;;;4.60;2.80;;;;;;;;;;5047877;28;20024;-73
2022/09/04 15:16:21;;;;;;;7.38;3.17;;;;;;;;;;5067238;28;20040;-73
2022/09/04 15:19:17;;;;;;;6.00;3.35;;;;;;;;;;5060589;28;20032;-73
2022/09/04 15:22:06;;;;;;;4.32;2.72;;;;;;;;;;5062116;28;20051;-73
2022/09/04 15:24:36;;;;;;;6.95;2.65;;;;;;;;;;5049119;28;20072;-73
2022/09/04 15:27:31;;;;;;;4.65;2.75;;;;;;;;;;5059099;28;20499;-72
2022/09/04 15:30:18;;;;;;;4.57;2.63;;;;;;;;;;5046845;28;20048;-72
2022/09/04 15:32:43;;;;;;;4.13;2.70;;;;;;;;;;5064284;28;20039;-73
2022/09/04 15:35:26;;;;;;;4.35;3.10;;;;;;;;;;5066044;28;20583;-73
2022/09/04 15:38:20;;;;;;;6.90;3.10;;;;;;;;;;5061527;28;20036;-73
2022/09/04 15:40:51;;;;;;;5.18;2.75;;;;;;;;;;5061586;28;20024;-72
2022/09/04 15:43:30;;;;;;;4.68;2.33;;;;;;;;;;5065872;28;20032;-72
2022/09/04 15:46:02;;;;;;;4.07;2.60;;;;;;;;;;5058674;28;20075;-72
2022/09/04 15:48:43;;;;;;;8.30;3.33;;;;;;;;;;5041253;28;20043;-72
2022/09/04 15:51:27;;;;;;;6.68;2.92;;;;;;;;;;5047990;28;20024;-71
2022/09/04 15:54:14;;;;;;;4.22;2.88;;;;;;;;;;5065268;28;20147;-72
2022/09/04 15:56:51;;;;;;;3.50;2.88;;;;;;;;;;5065933;28;20052;-74
2022/09/04 15:59:21;;;;;;;5.72;2.60;;;;;;;;;;5062943;28;20379;-73
2022/09/04 16:01:59;;;;;;;3.42;2.47;;;;;;;;;;5030999;28;20179;-73
2022/09/04 16:04:36;;;;;;;4.90;2.75;;;;;;;;;;5064338;28;20063;-73
2022/09/04 16:07:21;;;;;;;4.82;2.47;;;;;;;;;;5040507;28;20069;-74
2022/09/04 16:09:55;;;;;;;6.72;2.90;;;;;;;;;;5037900;28;20051;-73
2022/09/04 16:12:26;;;;;;;4.25;2.95;;;;;;;;;;5036261;28;20574;-73
2022/09/04 16:15:10;;;;;;;4.90;2.70;;;;;;;;;;5036799;28;20036;-73
2022/09/04 16:17:43;;;;;;;6.35;2.88;;;;;;;;;;5055529;28;20031;-71
2022/09/04 16:20:24;;;;;;;4.72;2.80;;;;;;;;;;5059014;28;20487;-72
2022/09/04 16:23:00;;;;;;;9.80;2.97;;;;;;;;;;5059731;28;20106;-71